sensor_id;sensor_type;location;lat;lon;timestamp;temperature;humidity
4739;DHT22;2383;48.632;10.156;2024-03-02T00:02:22;6.90;99.90
4739;DHT22;2383;48.632;10.156;2024-03-02T00:06:24;6.80;99.90
4739;DHT22;2383;48.632;10.156;2024-03-02T00:10:39;7.00;99.90
4739;DHT22;2383;48.632;10.156;2024-03-02T00:14:42;7.20;99.90
4739;DHT22;2383;48.632;10.156;2024-03-02T00:18:44;7.30;99.90
4739;DHT22;2383;48.632;10.156;2024-03-02T00:22:46;7.40;99.90
4739;DHT22;2383;48.632;10.156;2024-03-02T00:26:51;7.20;99.90
4739;DHT22;2383;48.632;10.156;2024-03-02T00:31:06;7.10;99.90
4739;DHT22;2383;48.632;10.156;2024-03-02T00:35:14;7.10;99.90
4739;DHT22;2383;48.632;10.156;2024-03-02T00:39:16;7.10;99.90
4739;DHT22;2383;48.632;10.156;2024-03-02T00:47:49;7.10;99.90
4739;DHT22;2383;48.632;10.156;2024-03-02T00:51:52;6.70;99.90
4739;DHT22;2383;48.632;10.156;2024-03-02T00:55:54;6.70;99.90
4739;DHT22;2383;48.632;10.156;2024-03-02T00:59:56;7.00;99.90
4739;DHT22;2383;48.632;10.156;2024-03-02T01:03:58;7.00;99.90
4739;DHT22;2383;48.632;10.156;2024-03-02T01:08:00;7.00;99.90
4739;DHT22;2383;48.632;10.156;2024-03-02T01:12:02;7.00;99.90
4739;DHT22;2383;48.632;10.156;2024-03-02T01:16:04;7.20;99.90
4739;DHT22;2383;48.632;10.156;2024-03-02T01:20:08;7.00;99.90
4739;DHT22;2383;48.632;10.156;2024-03-02T01:24:11;6.60;99.90
4739;DHT22;2383;48.632;10.156;2024-03-02T01:28:15;6.50;99.90
4739;DHT22;2383;48.632;10.156;2024-03-02T01:32:17;6.50;99.90
4739;DHT22;2383;48.632;10.156;2024-03-02T01:36:19;6.60;99.90
4739;DHT22;2383;48.632;10.156;2024-03-02T01:40:21;6.50;99.90
4739;DHT22;2383;48.632;10.156;2024-03-02T01:44:25;6.00;99.90
4739;DHT22;2383;48.632;10.156;2024-03-02T01:48:27;6.30;99.90
4739;DHT22;2383;48.632;10.156;2024-03-02T01:52:29;6.00;99.90
4739;DHT22;2383;48.632;10.156;2024-03-02T01:56:31;6.60;99.90
4739;DHT22;2383;48.632;10.156;2024-03-02T02:00:33;7.10;99.90
4739;DHT22;2383;48.632;10.156;2024-03-02T02:04:35;7.20;99.90
4739;DHT22;2383;48.632;10.156;2024-03-02T02:08:38;7.40;99.90
4739;DHT22;2383;48.632;10.156;2024-03-02T02:12:40;7.30;99.90
4739;DHT22;2383;48.632;10.156;2024-03-02T02:16:42;7.10;99.90
4739;DHT22;2383;48.632;10.156;2024-03-02T02:20:44;7.20;99.90
4739;DHT22;2383;48.632;10.156;2024-03-02T02:24:46;7.20;99.90
4739;DHT22;2383;48.632;10.156;2024-03-02T02:28:48;6.50;99.90
4739;DHT22;2383;48.632;10.156;2024-03-02T02:32:50;6.30;99.90
4739;DHT22;2383;48.632;10.156;2024-03-02T02:36:52;6.50;99.90
4739;DHT22;2383;48.632;10.156;2024-03-02T02:40:55;6.80;99.90
4739;DHT22;2383;48.632;10.156;2024-03-02T02:44:56;7.10;99.90
4739;DHT22;2383;48.632;10.156;2024-03-02T02:48:59;7.00;99.90
4739;DHT22;2383;48.632;10.156;2024-03-02T02:53:00;6.70;99.90
4739;DHT22;2383;48.632;10.156;2024-03-02T02:57:03;6.70;99.90
4739;DHT22;2383;48.632;10.156;2024-03-02T03:01:05;6.50;99.90
4739;DHT22;2383;48.632;10.156;2024-03-02T03:05:08;6.10;99.90
4739;DHT22;2383;48.632;10.156;2024-03-02T03:09:10;6.30;99.90
4739;DHT22;2383;48.632;10.156;2024-03-02T03:13:13;6.40;99.90
4739;DHT22;2383;48.632;10.156;2024-03-02T03:17:14;6.20;99.90
4739;DHT22;2383;48.632;10.156;2024-03-02T03:21:17;6.40;99.90
4739;DHT22;2383;48.632;10.156;2024-03-02T03:25:18;6.10;99.90
4739;DHT22;2383;48.632;10.156;2024-03-02T03:29:20;6.30;99.90
4739;DHT22;2383;48.632;10.156;2024-03-02T03:33:23;6.40;99.90
4739;DHT22;2383;48.632;10.156;2024-03-02T03:37:25;6.80;99.90
4739;DHT22;2383;48.632;10.156;2024-03-02T03:41:34;6.90;99.90
4739;DHT22;2383;48.632;10.156;2024-03-02T03:45:36;7.00;99.90
4739;DHT22;2383;48.632;10.156;2024-03-02T03:49:38;7.10;99.90
4739;DHT22;2383;48.632;10.156;2024-03-02T03:53:40;7.00;99.90
4739;DHT22;2383;48.632;10.156;2024-03-02T03:57:42;7.10;99.90
4739;DHT22;2383;48.632;10.156;2024-03-02T04:01:44;6.60;99.90
4739;DHT22;2383;48.632;10.156;2024-03-02T04:05:46;5.50;99.90
4739;DHT22;2383;48.632;10.156;2024-03-02T04:09:48;5.60;99.90
4739;DHT22;2383;48.632;10.156;2024-03-02T04:13:50;6.30;99.90
4739;DHT22;2383;48.632;10.156;2024-03-02T04:17:52;6.70;99.90
4739;DHT22;2383;48.632;10.156;2024-03-02T04:21:54;6.20;99.90
4739;DHT22;2383;48.632;10.156;2024-03-02T04:25:56;6.60;99.90
4739;DHT22;2383;48.632;10.156;2024-03-02T04:29:59;6.80;99.90
4739;DHT22;2383;48.632;10.156;2024-03-02T04:34:01;7.00;99.90
4739;DHT22;2383;48.632;10.156;2024-03-02T04:38:03;6.90;99.90
4739;DHT22;2383;48.632;10.156;2024-03-02T04:42:06;6.90;99.90
4739;DHT22;2383;48.632;10.156;2024-03-02T04:46:08;6.90;99.90
4739;DHT22;2383;48.632;10.156;2024-03-02T04:50:10;6.90;99.90
4739;DHT22;2383;48.632;10.156;2024-03-02T04:54:12;6.70;99.90
4739;DHT22;2383;48.632;10.156;2024-03-02T04:58:16;6.70;99.90
4739;DHT22;2383;48.632;10.156;2024-03-02T05:02:18;6.50;99.90
4739;DHT22;2383;48.632;10.156;2024-03-02T05:06:20;6.10;99.90
4739;DHT22;2383;48.632;10.156;2024-03-02T05:10:22;6.10;99.90
4739;DHT22;2383;48.632;10.156;2024-03-02T05:14:24;6.00;99.90
4739;DHT22;2383;48.632;10.156;2024-03-02T05:18:26;6.40;99.90
4739;DHT22;2383;48.632;10.156;2024-03-02T05:22:28;6.50;99.90
4739;DHT22;2383;48.632;10.156;2024-03-02T05:26:30;6.40;99.90
4739;DHT22;2383;48.632;10.156;2024-03-02T05:30:33;6.50;99.90
4739;DHT22;2383;48.632;10.156;2024-03-02T05:34:36;6.50;99.90
4739;DHT22;2383;48.632;10.156;2024-03-02T05:38:38;6.70;99.90
4739;DHT22;2383;48.632;10.156;2024-03-02T05:42:40;7.00;99.90
4739;DHT22;2383;48.632;10.156;2024-03-02T05:46:43;6.90;99.90
4739;DHT22;2383;48.632;10.156;2024-03-02T05:50:46;6.10;99.90
4739;DHT22;2383;48.632;10.156;2024-03-02T05:54:47;6.20;99.90
4739;DHT22;2383;48.632;10.156;2024-03-02T05:58:50;5.70;99.90
4739;DHT22;2383;48.632;10.156;2024-03-02T06:03:10;5.00;99.90
4739;DHT22;2383;48.632;10.156;2024-03-02T06:07:12;5.80;99.90
4739;DHT22;2383;48.632;10.156;2024-03-02T06:11:15;6.00;99.90
4739;DHT22;2383;48.632;10.156;2024-03-02T06:15:16;6.10;99.90
4739;DHT22;2383;48.632;10.156;2024-03-02T06:19:19;6.30;99.90
4739;DHT22;2383;48.632;10.156;2024-03-02T06:23:21;6.30;99.90
4739;DHT22;2383;48.632;10.156;2024-03-02T06:27:23;5.90;99.90
4739;DHT22;2383;48.632;10.156;2024-03-02T06:31:25;5.90;99.90
4739;DHT22;2383;48.632;10.156;2024-03-02T06:35:27;6.20;99.90
4739;DHT22;2383;48.632;10.156;2024-03-02T06:39:29;6.20;99.90
4739;DHT22;2383;48.632;10.156;2024-03-02T06:43:33;5.60;99.90
4739;DHT22;2383;48.632;10.156;2024-03-02T06:47:35;5.60;99.90
4739;DHT22;2383;48.632;10.156;2024-03-02T06:51:39;5.60;99.90
4739;DHT22;2383;48.632;10.156;2024-03-02T06:55:41;6.10;99.90
4739;DHT22;2383;48.632;10.156;2024-03-02T06:59:43;6.00;99.90
4739;DHT22;2383;48.632;10.156;2024-03-02T07:03:46;5.50;99.90
4739;DHT22;2383;48.632;10.156;2024-03-02T07:07:48;5.40;99.90
4739;DHT22;2383;48.632;10.156;2024-03-02T07:11:50;6.00;99.90
4739;DHT22;2383;48.632;10.156;2024-03-02T07:15:53;6.40;99.90
4739;DHT22;2383;48.632;10.156;2024-03-02T07:20:04;6.40;99.90
4739;DHT22;2383;48.632;10.156;2024-03-02T07:24:08;6.60;99.90
4739;DHT22;2383;48.632;10.156;2024-03-02T07:28:14;6.90;99.90
4739;DHT22;2383;48.632;10.156;2024-03-02T07:32:16;6.70;99.90
4739;DHT22;2383;48.632;10.156;2024-03-02T07:36:18;6.70;99.90
4739;DHT22;2383;48.632;10.156;2024-03-02T07:40:21;6.90;99.90
4739;DHT22;2383;48.632;10.156;2024-03-02T07:44:23;6.70;99.90
4739;DHT22;2383;48.632;10.156;2024-03-02T07:48:26;5.80;99.90
4739;DHT22;2383;48.632;10.156;2024-03-02T07:52:29;5.50;99.90
4739;DHT22;2383;48.632;10.156;2024-03-02T07:56:30;5.60;99.90
4739;DHT22;2383;48.632;10.156;2024-03-02T08:00:33;6.40;99.90
4739;DHT22;2383;48.632;10.156;2024-03-02T08:04:35;6.30;99.90
4739;DHT22;2383;48.632;10.156;2024-03-02T08:08:39;6.80;99.90
4739;DHT22;2383;48.632;10.156;2024-03-02T08:12:41;7.10;99.90
4739;DHT22;2383;48.632;10.156;2024-03-02T08:16:43;7.00;99.90
4739;DHT22;2383;48.632;10.156;2024-03-02T08:20:45;6.50;99.90
4739;DHT22;2383;48.632;10.156;2024-03-02T08:24:47;7.10;99.90
4739;DHT22;2383;48.632;10.156;2024-03-02T08:28:49;7.00;99.90
4739;DHT22;2383;48.632;10.156;2024-03-02T08:32:51;7.20;99.90
4739;DHT22;2383;48.632;10.156;2024-03-02T08:36:53;6.80;99.90
4739;DHT22;2383;48.632;10.156;2024-03-02T08:40:56;7.30;99.90
4739;DHT22;2383;48.632;10.156;2024-03-02T08:44:58;7.70;99.90
4739;DHT22;2383;48.632;10.156;2024-03-02T08:49:02;7.60;99.90
4739;DHT22;2383;48.632;10.156;2024-03-02T08:53:04;7.50;99.90
4739;DHT22;2383;48.632;10.156;2024-03-02T08:57:06;7.50;99.90
4739;DHT22;2383;48.632;10.156;2024-03-02T09:01:10;7.80;99.90
4739;DHT22;2383;48.632;10.156;2024-03-02T09:05:12;7.70;99.90
4739;DHT22;2383;48.632;10.156;2024-03-02T09:09:14;7.50;99.90
4739;DHT22;2383;48.632;10.156;2024-03-02T09:13:17;6.90;99.90
4739;DHT22;2383;48.632;10.156;2024-03-02T09:17:19;7.50;99.90
4739;DHT22;2383;48.632;10.156;2024-03-02T09:21:21;7.80;99.90
4739;DHT22;2383;48.632;10.156;2024-03-02T09:25:22;7.80;99.90
4739;DHT22;2383;48.632;10.156;2024-03-02T09:29:25;7.20;99.90
4739;DHT22;2383;48.632;10.156;2024-03-02T09:33:27;7.30;99.90
4739;DHT22;2383;48.632;10.156;2024-03-02T09:37:29;7.50;99.90
4739;DHT22;2383;48.632;10.156;2024-03-02T09:41:33;7.50;99.90
4739;DHT22;2383;48.632;10.156;2024-03-02T09:45:36;7.40;99.90
4739;DHT22;2383;48.632;10.156;2024-03-02T09:49:38;7.40;99.90
4739;DHT22;2383;48.632;10.156;2024-03-02T09:53:41;7.30;99.90
4739;DHT22;2383;48.632;10.156;2024-03-02T09:57:45;7.20;99.90
4739;DHT22;2383;48.632;10.156;2024-03-02T10:02:01;7.60;99.90
4739;DHT22;2383;48.632;10.156;2024-03-02T10:10:22;7.80;99.90
4739;DHT22;2383;48.632;10.156;2024-03-02T10:14:25;8.00;99.90
4739;DHT22;2383;48.632;10.156;2024-03-02T10:18:27;7.90;99.90
4739;DHT22;2383;48.632;10.156;2024-03-02T10:22:31;7.50;99.90
4739;DHT22;2383;48.632;10.156;2024-03-02T10:26:36;7.40;99.90
4739;DHT22;2383;48.632;10.156;2024-03-02T10:30:39;7.30;99.90
4739;DHT22;2383;48.632;10.156;2024-03-02T10:34:42;7.50;99.90
4739;DHT22;2383;48.632;10.156;2024-03-02T10:38:45;7.60;99.90
4739;DHT22;2383;48.632;10.156;2024-03-02T10:42:50;7.60;99.90
4739;DHT22;2383;48.632;10.156;2024-03-02T10:46:53;7.80;99.90
4739;DHT22;2383;48.632;10.156;2024-03-02T10:50:57;7.60;99.90
4739;DHT22;2383;48.632;10.156;2024-03-02T10:55:03;7.80;99.90
4739;DHT22;2383;48.632;10.156;2024-03-02T11:03:29;7.80;99.90
4739;DHT22;2383;48.632;10.156;2024-03-02T11:07:37;8.00;99.90
4739;DHT22;2383;48.632;10.156;2024-03-02T11:11:43;8.20;99.90
4739;DHT22;2383;48.632;10.156;2024-03-02T11:15:45;7.40;99.90
4739;DHT22;2383;48.632;10.156;2024-03-02T11:19:48;7.50;99.90
4739;DHT22;2383;48.632;10.156;2024-03-02T11:23:51;7.00;99.90
4739;DHT22;2383;48.632;10.156;2024-03-02T11:31:58;8.60;99.90
4739;DHT22;2383;48.632;10.156;2024-03-02T11:36:06;8.90;99.90
4739;DHT22;2383;48.632;10.156;2024-03-02T11:40:11;8.70;99.90
4739;DHT22;2383;48.632;10.156;2024-03-02T11:44:14;8.40;99.90
4739;DHT22;2383;48.632;10.156;2024-03-02T11:48:19;8.80;99.90
4739;DHT22;2383;48.632;10.156;2024-03-02T11:52:22;8.70;99.90
4739;DHT22;2383;48.632;10.156;2024-03-02T11:56:25;8.50;99.90
4739;DHT22;2383;48.632;10.156;2024-03-02T12:00:29;8.70;99.90
4739;DHT22;2383;48.632;10.156;2024-03-02T12:04:31;8.60;99.90
4739;DHT22;2383;48.632;10.156;2024-03-02T12:08:33;8.80;99.90
4739;DHT22;2383;48.632;10.156;2024-03-02T12:12:35;8.90;99.90
4739;DHT22;2383;48.632;10.156;2024-03-02T12:16:37;8.80;99.90
4739;DHT22;2383;48.632;10.156;2024-03-02T12:20:41;9.10;99.90
4739;DHT22;2383;48.632;10.156;2024-03-02T12:24:44;8.90;99.90
4739;DHT22;2383;48.632;10.156;2024-03-02T12:28:49;8.90;99.90
4739;DHT22;2383;48.632;10.156;2024-03-02T12:32:51;9.30;99.90
4739;DHT22;2383;48.632;10.156;2024-03-02T12:36:54;8.80;99.90
4739;DHT22;2383;48.632;10.156;2024-03-02T12:40:56;8.90;99.90
4739;DHT22;2383;48.632;10.156;2024-03-02T12:44:58;9.00;99.90
4739;DHT22;2383;48.632;10.156;2024-03-02T12:49:14;9.00;99.90
4739;DHT22;2383;48.632;10.156;2024-03-02T12:53:17;9.10;99.90
4739;DHT22;2383;48.632;10.156;2024-03-02T12:57:19;8.50;99.90
4739;DHT22;2383;48.632;10.156;2024-03-02T13:01:22;9.00;99.90
4739;DHT22;2383;48.632;10.156;2024-03-02T13:05:24;8.80;99.90
4739;DHT22;2383;48.632;10.156;2024-03-02T13:09:27;9.40;99.90
4739;DHT22;2383;48.632;10.156;2024-03-02T13:13:33;9.00;99.90
4739;DHT22;2383;48.632;10.156;2024-03-02T13:17:36;9.30;99.90
4739;DHT22;2383;48.632;10.156;2024-03-02T13:21:40;10.00;99.90
4739;DHT22;2383;48.632;10.156;2024-03-02T13:25:42;9.60;99.90
4739;DHT22;2383;48.632;10.156;2024-03-02T13:29:45;9.70;99.90
4739;DHT22;2383;48.632;10.156;2024-03-02T13:33:48;9.70;99.90
4739;DHT22;2383;48.632;10.156;2024-03-02T13:37:50;9.70;99.90
4739;DHT22;2383;48.632;10.156;2024-03-02T13:41:52;10.10;99.90
4739;DHT22;2383;48.632;10.156;2024-03-02T13:45:59;9.70;99.90
4739;DHT22;2383;48.632;10.156;2024-03-02T13:50:02;9.80;99.90
4739;DHT22;2383;48.632;10.156;2024-03-02T13:54:04;10.30;99.90
4739;DHT22;2383;48.632;10.156;2024-03-02T13:58:07;10.30;99.90
4739;DHT22;2383;48.632;10.156;2024-03-02T14:02:09;10.10;99.90
4739;DHT22;2383;48.632;10.156;2024-03-02T14:06:12;10.10;99.90
4739;DHT22;2383;48.632;10.156;2024-03-02T14:10:14;10.40;99.90
4739;DHT22;2383;48.632;10.156;2024-03-02T14:14:18;10.20;99.90
4739;DHT22;2383;48.632;10.156;2024-03-02T14:18:20;9.80;99.90
4739;DHT22;2383;48.632;10.156;2024-03-02T14:22:24;9.80;99.90
4739;DHT22;2383;48.632;10.156;2024-03-02T14:26:26;9.70;99.90
4739;DHT22;2383;48.632;10.156;2024-03-02T14:30:30;10.00;99.90
4739;DHT22;2383;48.632;10.156;2024-03-02T14:34:32;9.70;99.90
4739;DHT22;2383;48.632;10.156;2024-03-02T14:38:37;9.40;99.90
4739;DHT22;2383;48.632;10.156;2024-03-02T14:42:39;9.50;99.90
4739;DHT22;2383;48.632;10.156;2024-03-02T14:46:42;9.70;99.90
4739;DHT22;2383;48.632;10.156;2024-03-02T14:50:45;9.80;99.90
4739;DHT22;2383;48.632;10.156;2024-03-02T14:54:47;9.70;99.90
4739;DHT22;2383;48.632;10.156;2024-03-02T14:58:49;9.50;99.90
4739;DHT22;2383;48.632;10.156;2024-03-02T15:02:52;9.70;99.90
4739;DHT22;2383;48.632;10.156;2024-03-02T15:06:54;9.80;99.90
4739;DHT22;2383;48.632;10.156;2024-03-02T15:10:57;9.90;99.90
4739;DHT22;2383;48.632;10.156;2024-03-02T15:15:01;10.10;99.90
4739;DHT22;2383;48.632;10.156;2024-03-02T15:19:03;9.90;99.90
4739;DHT22;2383;48.632;10.156;2024-03-02T15:23:05;9.50;99.90
4739;DHT22;2383;48.632;10.156;2024-03-02T15:27:07;9.90;99.90
4739;DHT22;2383;48.632;10.156;2024-03-02T15:31:10;10.10;99.90
4739;DHT22;2383;48.632;10.156;2024-03-02T15:35:13;10.30;99.90
4739;DHT22;2383;48.632;10.156;2024-03-02T15:39:15;10.00;99.90
4739;DHT22;2383;48.632;10.156;2024-03-02T15:43:18;10.20;99.90
4739;DHT22;2383;48.632;10.156;2024-03-02T15:47:20;10.10;99.90
4739;DHT22;2383;48.632;10.156;2024-03-02T15:51:23;9.90;99.90
4739;DHT22;2383;48.632;10.156;2024-03-02T15:55:25;9.80;99.90
4739;DHT22;2383;48.632;10.156;2024-03-02T15:59:26;9.40;99.90
4739;DHT22;2383;48.632;10.156;2024-03-02T16:03:29;9.50;99.90
4739;DHT22;2383;48.632;10.156;2024-03-02T16:07:32;9.00;99.90
4739;DHT22;2383;48.632;10.156;2024-03-02T16:11:33;9.30;99.90
4739;DHT22;2383;48.632;10.156;2024-03-02T16:15:37;9.60;99.90
4739;DHT22;2383;48.632;10.156;2024-03-02T16:19:39;9.70;99.90
4739;DHT22;2383;48.632;10.156;2024-03-02T16:23:43;9.60;99.90
4739;DHT22;2383;48.632;10.156;2024-03-02T16:27:45;9.30;99.90
4739;DHT22;2383;48.632;10.156;2024-03-02T16:31:47;9.60;99.90
4739;DHT22;2383;48.632;10.156;2024-03-02T16:35:49;9.20;99.90
4739;DHT22;2383;48.632;10.156;2024-03-02T16:39:52;9.10;99.90
4739;DHT22;2383;48.632;10.156;2024-03-02T16:43:54;9.20;99.90
4739;DHT22;2383;48.632;10.156;2024-03-02T16:47:56;9.60;99.90
4739;DHT22;2383;48.632;10.156;2024-03-02T16:51:58;9.60;99.90
4739;DHT22;2383;48.632;10.156;2024-03-02T16:56:01;9.50;99.90
4739;DHT22;2383;48.632;10.156;2024-03-02T17:00:06;9.40;99.90
4739;DHT22;2383;48.632;10.156;2024-03-02T17:04:09;9.50;99.90
4739;DHT22;2383;48.632;10.156;2024-03-02T17:08:12;9.50;99.90
4739;DHT22;2383;48.632;10.156;2024-03-02T17:12:14;9.40;99.90
4739;DHT22;2383;48.632;10.156;2024-03-02T17:16:16;9.30;99.90
4739;DHT22;2383;48.632;10.156;2024-03-02T17:20:19;9.30;99.90
4739;DHT22;2383;48.632;10.156;2024-03-02T17:24:25;9.00;99.90
4739;DHT22;2383;48.632;10.156;2024-03-02T17:28:27;9.10;99.90
4739;DHT22;2383;48.632;10.156;2024-03-02T17:32:33;8.80;99.90
4739;DHT22;2383;48.632;10.156;2024-03-02T17:36:35;8.90;99.90
4739;DHT22;2383;48.632;10.156;2024-03-02T17:40:38;9.00;99.90
4739;DHT22;2383;48.632;10.156;2024-03-02T17:44:40;9.00;99.90
4739;DHT22;2383;48.632;10.156;2024-03-02T17:48:42;8.90;99.90
4739;DHT22;2383;48.632;10.156;2024-03-02T17:52:44;9.10;99.90
4739;DHT22;2383;48.632;10.156;2024-03-02T17:56:46;9.10;99.90
4739;DHT22;2383;48.632;10.156;2024-03-02T18:00:48;9.20;99.90
4739;DHT22;2383;48.632;10.156;2024-03-02T18:04:50;9.10;99.90
4739;DHT22;2383;48.632;10.156;2024-03-02T18:08:51;9.10;99.90
4739;DHT22;2383;48.632;10.156;2024-03-02T18:12:54;9.10;99.90
4739;DHT22;2383;48.632;10.156;2024-03-02T18:16:57;8.90;99.90
4739;DHT22;2383;48.632;10.156;2024-03-02T18:20:59;9.00;99.90
4739;DHT22;2383;48.632;10.156;2024-03-02T18:25:01;8.90;99.90
4739;DHT22;2383;48.632;10.156;2024-03-02T18:29:03;8.70;99.90
4739;DHT22;2383;48.632;10.156;2024-03-02T18:33:09;8.60;99.90
4739;DHT22;2383;48.632;10.156;2024-03-02T18:37:11;8.70;99.90
4739;DHT22;2383;48.632;10.156;2024-03-02T18:41:15;8.60;99.90
4739;DHT22;2383;48.632;10.156;2024-03-02T18:45:17;8.60;99.90
4739;DHT22;2383;48.632;10.156;2024-03-02T18:49:19;8.50;99.90
4739;DHT22;2383;48.632;10.156;2024-03-02T18:53:21;8.50;99.90
4739;DHT22;2383;48.632;10.156;2024-03-02T18:57:23;8.30;99.90
4739;DHT22;2383;48.632;10.156;2024-03-02T19:01:26;8.30;99.90
4739;DHT22;2383;48.632;10.156;2024-03-02T19:05:29;8.30;99.90
4739;DHT22;2383;48.632;10.156;2024-03-02T19:09:31;8.00;99.90
4739;DHT22;2383;48.632;10.156;2024-03-02T19:13:33;7.80;99.90
4739;DHT22;2383;48.632;10.156;2024-03-02T19:17:35;8.00;99.90
4739;DHT22;2383;48.632;10.156;2024-03-02T19:21:37;7.90;99.90
4739;DHT22;2383;48.632;10.156;2024-03-02T19:25:40;7.80;99.90
4739;DHT22;2383;48.632;10.156;2024-03-02T19:29:42;7.90;99.90
4739;DHT22;2383;48.632;10.156;2024-03-02T19:33:44;7.80;99.90
4739;DHT22;2383;48.632;10.156;2024-03-02T19:37:46;7.80;99.90
4739;DHT22;2383;48.632;10.156;2024-03-02T19:41:49;7.80;99.90
4739;DHT22;2383;48.632;10.156;2024-03-02T19:45:52;7.90;99.90
4739;DHT22;2383;48.632;10.156;2024-03-02T19:49:54;7.80;99.90
4739;DHT22;2383;48.632;10.156;2024-03-02T19:53:56;7.90;99.90
4739;DHT22;2383;48.632;10.156;2024-03-02T19:57:59;7.70;99.90
4739;DHT22;2383;48.632;10.156;2024-03-02T20:02:01;7.80;99.90
4739;DHT22;2383;48.632;10.156;2024-03-02T20:06:04;8.00;99.90
4739;DHT22;2383;48.632;10.156;2024-03-02T20:10:07;7.90;99.90
4739;DHT22;2383;48.632;10.156;2024-03-02T20:14:12;7.90;99.90
4739;DHT22;2383;48.632;10.156;2024-03-02T20:18:14;8.00;99.90
4739;DHT22;2383;48.632;10.156;2024-03-02T20:22:16;7.90;99.90
4739;DHT22;2383;48.632;10.156;2024-03-02T20:26:18;7.60;99.90
4739;DHT22;2383;48.632;10.156;2024-03-02T20:30:23;7.60;99.90
4739;DHT22;2383;48.632;10.156;2024-03-02T20:34:25;7.60;99.90
4739;DHT22;2383;48.632;10.156;2024-03-02T20:38:27;7.60;99.90
4739;DHT22;2383;48.632;10.156;2024-03-02T20:42:29;7.60;99.90
4739;DHT22;2383;48.632;10.156;2024-03-02T20:46:32;7.60;99.90
4739;DHT22;2383;48.632;10.156;2024-03-02T20:50:34;7.70;99.90
4739;DHT22;2383;48.632;10.156;2024-03-02T20:54:36;7.40;99.90
4739;DHT22;2383;48.632;10.156;2024-03-02T20:58:38;7.10;99.90
4739;DHT22;2383;48.632;10.156;2024-03-02T21:02:42;7.20;99.90
4739;DHT22;2383;48.632;10.156;2024-03-02T21:06:46;7.40;99.90
4739;DHT22;2383;48.632;10.156;2024-03-02T21:10:48;7.40;99.90
4739;DHT22;2383;48.632;10.156;2024-03-02T21:14:51;7.40;99.90
4739;DHT22;2383;48.632;10.156;2024-03-02T21:18:52;7.40;99.90
4739;DHT22;2383;48.632;10.156;2024-03-02T21:22:57;7.50;99.90
4739;DHT22;2383;48.632;10.156;2024-03-02T21:26:59;7.30;99.90
4739;DHT22;2383;48.632;10.156;2024-03-02T21:31:01;7.30;99.90
4739;DHT22;2383;48.632;10.156;2024-03-02T21:35:07;7.30;99.90
4739;DHT22;2383;48.632;10.156;2024-03-02T21:39:09;7.20;99.90
4739;DHT22;2383;48.632;10.156;2024-03-02T21:43:12;7.20;99.90
4739;DHT22;2383;48.632;10.156;2024-03-02T21:47:14;7.30;99.90
4739;DHT22;2383;48.632;10.156;2024-03-02T21:51:18;7.20;99.90
4739;DHT22;2383;48.632;10.156;2024-03-02T21:55:22;7.10;99.90
4739;DHT22;2383;48.632;10.156;2024-03-02T21:59:24;7.10;99.90
4739;DHT22;2383;48.632;10.156;2024-03-02T22:03:26;7.10;99.90
4739;DHT22;2383;48.632;10.156;2024-03-02T22:07:28;7.00;99.90
4739;DHT22;2383;48.632;10.156;2024-03-02T22:11:31;6.90;99.90
4739;DHT22;2383;48.632;10.156;2024-03-02T22:15:33;6.90;99.90
4739;DHT22;2383;48.632;10.156;2024-03-02T22:19:35;6.80;99.90
4739;DHT22;2383;48.632;10.156;2024-03-02T22:23:37;6.80;99.90
4739;DHT22;2383;48.632;10.156;2024-03-02T22:27:40;6.60;99.90
4739;DHT22;2383;48.632;10.156;2024-03-02T22:31:43;6.60;99.90
4739;DHT22;2383;48.632;10.156;2024-03-02T22:35:46;6.60;99.90
4739;DHT22;2383;48.632;10.156;2024-03-02T22:39:48;6.50;99.90
4739;DHT22;2383;48.632;10.156;2024-03-02T22:43:50;6.50;99.90
4739;DHT22;2383;48.632;10.156;2024-03-02T22:47:52;6.20;99.90
4739;DHT22;2383;48.632;10.156;2024-03-02T22:51:56;6.20;99.90
4739;DHT22;2383;48.632;10.156;2024-03-02T22:55:59;6.10;99.90
4739;DHT22;2383;48.632;10.156;2024-03-02T23:00:01;6.10;99.90
4739;DHT22;2383;48.632;10.156;2024-03-02T23:04:03;6.00;99.90
4739;DHT22;2383;48.632;10.156;2024-03-02T23:08:05;6.00;99.90
4739;DHT22;2383;48.632;10.156;2024-03-02T23:12:07;5.90;99.90
4739;DHT22;2383;48.632;10.156;2024-03-02T23:16:09;5.80;99.90
4739;DHT22;2383;48.632;10.156;2024-03-02T23:20:11;5.90;99.90
4739;DHT22;2383;48.632;10.156;2024-03-02T23:24:13;5.90;99.90
4739;DHT22;2383;48.632;10.156;2024-03-02T23:28:15;5.50;99.90
4739;DHT22;2383;48.632;10.156;2024-03-02T23:32:17;5.70;99.90
4739;DHT22;2383;48.632;10.156;2024-03-02T23:36:20;5.80;99.90
4739;DHT22;2383;48.632;10.156;2024-03-02T23:40:21;5.90;99.90
4739;DHT22;2383;48.632;10.156;2024-03-02T23:44:58;5.70;99.90
4739;DHT22;2383;48.632;10.156;2024-03-02T23:49:01;5.70;99.90
4739;DHT22;2383;48.632;10.156;2024-03-02T23:53:03;5.80;99.90
4739;DHT22;2383;48.632;10.156;2024-03-02T23:57:08;5.70;99.90
